createdAt,value
2018-05-07T16:03:59.378Z,22.50
2018-05-07T16:09:02.859Z,22.90
2018-05-07T16:14:06.192Z,23.70
2018-05-07T16:19:09.439Z,23.70
2018-05-07T16:24:14.012Z,23.90
2018-05-07T16:29:16.553Z,23.90
2018-05-07T16:34:21.882Z,24.00
2018-05-07T16:39:25.675Z,24.00
2018-05-07T16:44:28.493Z,24.00
2018-05-07T16:49:32.219Z,24.00
2018-05-07T16:54:35.840Z,24.10
2018-05-07T16:59:38.648Z,24.00
2018-05-07T17:04:42.443Z,24.10
2018-05-07T17:09:47.363Z,24.10
2018-05-07T17:14:52.142Z,24.10
2018-05-07T17:19:55.386Z,24.10
2018-05-07T17:25:01.278Z,24.10
2018-05-07T17:30:04.347Z,24.10
2018-05-07T17:35:06.961Z,24.10
2018-05-07T17:40:09.650Z,24.10
2018-05-07T17:45:26.198Z,24.10
2018-05-07T17:50:28.847Z,24.10
2018-05-07T17:55:32.331Z,24.10
2018-05-07T18:00:36.105Z,24.10
2018-05-07T18:05:39.729Z,24.10
2018-05-07T18:10:44.208Z,24.10
2018-05-07T18:15:47.544Z,24.10
2018-05-07T18:20:53.739Z,24.10
2018-05-07T18:25:56.902Z,24.10
2018-05-07T18:30:59.713Z,24.10
2018-05-07T18:36:02.349Z,24.00
2018-05-07T18:41:05.811Z,24.00
2018-05-07T18:46:08.400Z,24.00
2018-05-07T18:51:11.311Z,23.90
2018-05-07T18:56:14.134Z,23.90
2018-05-07T19:01:20.509Z,23.80
2018-05-07T19:06:29.685Z,23.60
2018-05-07T19:11:38.577Z,23.70
2018-05-07T19:16:49.247Z,23.60
2018-05-07T19:21:53.661Z,23.60
2018-05-07T19:27:01.008Z,23.50
2018-05-07T19:32:08.668Z,23.40
2018-05-07T19:37:14.020Z,23.40
2018-05-07T19:47:46.327Z,23.10
2018-05-07T19:53:05.987Z,23.00
2018-05-07T19:58:14.325Z,23.00
2018-05-07T20:03:22.035Z,22.80
2018-05-07T20:13:38.187Z,22.70
2018-05-07T20:18:40.785Z,22.60
2018-05-07T20:29:21.864Z,22.40
2018-05-07T20:34:24.340Z,22.40
2018-05-07T20:39:26.825Z,22.30
2018-05-07T20:44:30.059Z,22.20
2018-05-07T20:49:32.546Z,22.20
2018-05-07T20:54:35.033Z,22.10
2018-05-07T20:59:37.529Z,22.00
2018-05-07T21:04:40.788Z,22.00
2018-05-07T21:09:43.260Z,21.90
2018-05-07T21:14:45.739Z,21.80
2018-05-07T21:19:48.215Z,21.70
2018-05-07T21:24:50.735Z,21.70
2018-05-07T21:29:53.206Z,21.60
2018-05-07T21:34:55.680Z,21.50
2018-05-07T21:39:58.932Z,21.40
2018-05-07T21:45:01.424Z,21.40
2018-05-07T21:50:03.908Z,21.40
2018-05-07T21:55:06.388Z,21.30
2018-05-07T22:00:11.453Z,21.20
2018-05-07T22:05:13.946Z,21.10
2018-05-07T22:10:16.432Z,21.10
2018-05-07T22:15:18.916Z,21.00
2018-05-07T22:20:22.168Z,20.90
2018-05-07T22:25:24.676Z,20.90
2018-05-07T22:30:27.330Z,20.80
2018-05-07T22:35:29.824Z,20.70
2018-05-07T22:40:32.319Z,20.70
2018-05-07T22:45:34.816Z,20.60
2018-05-07T22:50:37.316Z,20.60
2018-05-07T22:55:39.901Z,20.50
2018-05-07T23:00:42.411Z,20.50
2018-05-07T23:05:44.812Z,20.50
2018-05-07T23:10:47.285Z,20.20
2018-05-07T23:15:49.771Z,20.40
2018-05-07T23:20:52.356Z,20.30
2018-05-07T23:25:55.660Z,20.20
2018-05-07T23:30:58.149Z,20.20
2018-05-07T23:36:01.400Z,20.40
2018-05-07T23:41:03.895Z,20.20
2018-05-07T23:46:06.383Z,20.10
2018-05-07T23:51:08.859Z,20.10
2018-05-07T23:56:11.351Z,20.00
